createdAt,value
2019-03-22T00:00:29.449Z,96.20
2019-03-22T00:02:57.206Z,96.70
2019-03-22T00:05:24.937Z,96.30
2019-03-22T00:07:52.691Z,96.20
2019-03-22T00:10:20.436Z,96.00
2019-03-22T00:12:48.164Z,96.00
2019-03-22T00:15:15.996Z,96.20
2019-03-22T00:17:43.718Z,96.30
2019-03-22T00:20:11.658Z,96.60
2019-03-22T00:22:39.402Z,95.90
2019-03-22T00:25:07.345Z,96.30
2019-03-22T00:27:47.043Z,96.80
2019-03-22T00:30:14.960Z,96.60
2019-03-22T00:32:42.716Z,96.90
2019-03-22T00:35:10.493Z,97.10
2019-03-22T00:37:38.250Z,96.70
2019-03-22T00:40:06.311Z,96.40
2019-03-22T00:42:34.066Z,96.70
2019-03-22T00:45:01.802Z,96.70
2019-03-22T00:47:29.548Z,96.30
2019-03-22T00:49:57.290Z,96.50
2019-03-22T00:52:25.135Z,96.40
2019-03-22T00:54:52.868Z,96.40
2019-03-22T00:57:28.485Z,96.30
2019-03-22T00:59:50.307Z,96.30
2019-03-22T01:02:18.054Z,96.70
2019-03-22T01:04:45.955Z,96.30
2019-03-22T01:07:13.797Z,96.10
2019-03-22T01:09:41.536Z,95.80
2019-03-22T01:12:09.280Z,95.90
2019-03-22T01:14:37.313Z,96.30
2019-03-22T01:17:05.046Z,96.10
2019-03-22T01:19:32.885Z,96.00
2019-03-22T01:22:00.617Z,96.70
2019-03-22T01:24:29.680Z,97.30
2019-03-22T01:26:57.418Z,97.30
2019-03-22T01:29:25.161Z,97.00
2019-03-22T01:31:53.052Z,96.90
2019-03-22T01:34:20.787Z,96.60
2019-03-22T01:36:48.504Z,96.60
2019-03-22T01:39:16.253Z,96.70
2019-03-22T01:41:44.012Z,96.70
2019-03-22T01:44:11.732Z,96.50
2019-03-22T01:46:39.469Z,96.40
2019-03-22T01:49:07.209Z,96.50
2019-03-22T01:51:34.929Z,96.60
2019-03-22T01:54:02.637Z,97.20
2019-03-22T01:56:30.380Z,97.50
2019-03-22T01:58:59.024Z,97.00
2019-03-22T02:01:26.864Z,96.80
2019-03-22T02:03:54.706Z,96.70
2019-03-22T02:06:22.432Z,97.30
2019-03-22T02:08:50.577Z,97.30
2019-03-22T02:11:18.324Z,97.60
2019-03-22T02:13:46.095Z,97.50
2019-03-22T02:16:13.867Z,97.00
2019-03-22T02:18:42.017Z,97.00
2019-03-22T02:21:09.736Z,96.90
2019-03-22T02:23:37.488Z,96.90
2019-03-22T02:26:05.285Z,96.80
2019-03-22T02:28:33.037Z,96.70
2019-03-22T02:31:00.908Z,97.00
2019-03-22T02:33:28.994Z,97.50
2019-03-22T02:35:56.727Z,97.10
2019-03-22T02:38:24.609Z,97.20
2019-03-22T02:40:52.370Z,97.30
2019-03-22T02:43:20.237Z,97.10
2019-03-22T02:45:48.283Z,97.10
2019-03-22T02:48:16.029Z,97.40
2019-03-22T02:50:43.759Z,97.40
2019-03-22T02:53:11.528Z,96.90
2019-03-22T02:55:39.377Z,97.00
2019-03-22T02:58:19.690Z,97.00
2019-03-22T03:00:36.817Z,97.50
2019-03-22T03:03:04.582Z,97.80
2019-03-22T03:05:32.324Z,98.00
2019-03-22T03:08:00.064Z,97.40
2019-03-22T03:10:27.813Z,97.80
2019-03-22T03:12:55.644Z,98.30
2019-03-22T03:15:23.394Z,98.30
2019-03-22T03:17:51.146Z,98.20
2019-03-22T03:20:18.895Z,98.00
2019-03-22T03:22:46.742Z,97.80
2019-03-22T03:25:14.989Z,98.00
2019-03-22T03:27:42.717Z,98.00
2019-03-22T03:30:12.170Z,97.90
2019-03-22T03:32:40.012Z,98.30
2019-03-22T03:35:08.116Z,98.20
2019-03-22T03:37:35.888Z,98.30
2019-03-22T03:40:05.622Z,98.50
2019-03-22T03:42:33.349Z,98.40
2019-03-22T03:45:01.095Z,98.30
2019-03-22T03:47:29.034Z,98.40
2019-03-22T03:49:56.776Z,98.30
2019-03-22T03:52:24.445Z,98.00
2019-03-22T03:54:52.187Z,98.40
2019-03-22T03:57:19.914Z,98.30
2019-03-22T03:59:48.556Z,97.90
2019-03-22T04:02:16.311Z,98.00
2019-03-22T04:04:44.052Z,98.40
2019-03-22T04:07:11.932Z,98.20
2019-03-22T04:09:39.782Z,97.90
2019-03-22T04:12:07.664Z,97.90
2019-03-22T04:14:35.645Z,98.10
2019-03-22T04:17:03.494Z,98.30
2019-03-22T04:19:31.218Z,98.30
2019-03-22T04:21:58.941Z,98.30
2019-03-22T04:24:26.671Z,98.30
2019-03-22T04:26:54.396Z,98.40
2019-03-22T04:29:22.145Z,98.50
2019-03-22T04:31:49.892Z,98.40
2019-03-22T04:34:17.677Z,98.30
2019-03-22T04:36:45.398Z,98.50
2019-03-22T04:39:13.140Z,98.40
2019-03-22T04:41:41.061Z,98.30
2019-03-22T04:44:08.796Z,98.90
2019-03-22T04:46:38.828Z,98.70
2019-03-22T04:49:06.749Z,98.30
2019-03-22T04:51:34.569Z,98.20
2019-03-22T04:54:04.012Z,97.90
2019-03-22T04:56:34.429Z,97.70
2019-03-22T04:59:05.091Z,98.00
2019-03-22T05:01:33.848Z,98.10
2019-03-22T05:04:03.458Z,98.20
2019-03-22T05:06:32.497Z,98.30
2019-03-22T05:09:00.749Z,98.20
2019-03-22T05:11:29.102Z,98.20
2019-03-22T05:14:00.147Z,98.10
2019-03-22T05:16:28.712Z,98.20
2019-03-22T05:18:58.561Z,98.40
2019-03-22T05:21:27.092Z,98.30
2019-03-22T05:23:58.866Z,98.30
2019-03-22T05:26:29.796Z,98.30
2019-03-22T05:28:59.178Z,98.50
2019-03-22T05:31:48.153Z,98.20
2019-03-22T05:34:15.888Z,98.40
2019-03-22T05:36:43.629Z,98.60
2019-03-22T05:39:11.377Z,98.70
2019-03-22T05:41:39.121Z,98.90
2019-03-22T05:44:06.873Z,98.90
2019-03-22T05:46:34.629Z,98.80
2019-03-22T05:49:02.420Z,98.80
2019-03-22T05:51:30.152Z,99.10
2019-03-22T05:53:57.909Z,99.30
2019-03-22T05:56:25.657Z,99.10
2019-03-22T05:58:53.468Z,99.40
2019-03-22T06:01:21.368Z,99.20
2019-03-22T06:03:49.119Z,99.30
2019-03-22T06:06:16.856Z,99.40
2019-03-22T06:08:44.601Z,99.80
2019-03-22T06:11:12.333Z,99.80
2019-03-22T06:13:40.036Z,99.80
2019-03-22T06:16:07.773Z,99.60
2019-03-22T06:18:35.533Z,99.50
2019-03-22T06:21:03.285Z,99.50
2019-03-22T06:23:31.025Z,99.50
2019-03-22T06:25:58.977Z,98.50
2019-03-22T06:28:26.768Z,97.50
2019-03-22T06:30:54.522Z,96.70
2019-03-22T06:33:22.253Z,96.60
2019-03-22T06:35:49.997Z,96.00
2019-03-22T06:38:17.733Z,94.90
2019-03-22T06:40:45.468Z,95.10
2019-03-22T06:43:13.321Z,94.40
2019-03-22T06:45:41.053Z,94.40
2019-03-22T06:48:08.772Z,93.50
2019-03-22T06:50:36.594Z,92.80
2019-03-22T06:53:04.336Z,92.20
2019-03-22T06:55:32.078Z,91.10
2019-03-22T06:57:59.953Z,90.70
2019-03-22T07:00:27.768Z,91.10
2019-03-22T07:02:56.412Z,90.50
2019-03-22T07:05:24.149Z,90.10
2019-03-22T07:07:51.909Z,90.50
2019-03-22T07:10:19.625Z,88.60
2019-03-22T07:12:47.369Z,88.00
2019-03-22T07:15:15.302Z,87.80
2019-03-22T07:17:43.931Z,90.00
2019-03-22T07:20:11.848Z,90.00
2019-03-22T07:22:39.632Z,87.20
2019-03-22T07:25:07.574Z,85.90
2019-03-22T07:27:35.332Z,86.90
2019-03-22T07:30:03.495Z,87.50
2019-03-22T07:32:31.344Z,89.00
2019-03-22T07:34:59.072Z,88.80
2019-03-22T07:37:26.860Z,87.20
2019-03-22T07:39:54.580Z,85.60
2019-03-22T07:42:22.326Z,88.90
2019-03-22T07:44:50.054Z,89.30
2019-03-22T07:47:17.796Z,90.00
2019-03-22T07:49:45.526Z,88.10
2019-03-22T07:52:13.596Z,88.70
2019-03-22T07:54:41.572Z,87.70
2019-03-22T07:57:09.310Z,88.30
2019-03-22T07:59:37.036Z,87.00
2019-03-22T08:02:04.782Z,87.70
2019-03-22T08:04:33.454Z,88.60
2019-03-22T08:07:01.411Z,88.60
2019-03-22T08:09:29.211Z,89.70
2019-03-22T08:11:56.941Z,89.40
2019-03-22T08:14:24.724Z,90.10
2019-03-22T08:16:52.453Z,90.60
2019-03-22T08:19:20.588Z,90.20
2019-03-22T08:21:48.524Z,89.50
2019-03-22T08:24:16.341Z,90.10
2019-03-22T08:26:44.092Z,90.10
2019-03-22T08:29:11.853Z,90.40
2019-03-22T08:31:39.614Z,90.80
2019-03-22T08:34:07.450Z,91.10
2019-03-22T08:36:35.202Z,90.70
2019-03-22T08:39:06.008Z,90.20
2019-03-22T08:41:33.861Z,90.10
2019-03-22T08:44:02.982Z,90.40
2019-03-22T08:46:30.995Z,90.60
2019-03-22T08:48:58.869Z,90.70
2019-03-22T08:51:29.675Z,90.70
2019-03-22T08:53:56.297Z,91.40
2019-03-22T08:56:24.127Z,91.50
2019-03-22T08:58:51.905Z,91.10
2019-03-22T09:01:19.711Z,91.50
2019-03-22T09:03:47.621Z,91.30
2019-03-22T09:06:16.388Z,91.30
2019-03-22T09:08:44.251Z,90.40
2019-03-22T09:11:12.081Z,90.10
2019-03-22T09:13:39.923Z,89.80
2019-03-22T09:16:07.785Z,88.00
2019-03-22T09:18:35.655Z,87.30
2019-03-22T09:21:03.454Z,87.30
2019-03-22T09:23:31.280Z,88.10
2019-03-22T09:25:59.075Z,87.40
2019-03-22T09:28:26.926Z,83.40
2019-03-22T09:30:54.845Z,83.50
2019-03-22T09:33:22.604Z,82.70
2019-03-22T09:35:50.349Z,80.10
2019-03-22T09:38:18.107Z,79.90
2019-03-22T09:40:45.968Z,81.20
2019-03-22T09:43:13.764Z,80.30
2019-03-22T09:45:41.725Z,80.80
2019-03-22T09:48:09.582Z,79.80
2019-03-22T09:50:37.488Z,78.80
2019-03-22T09:53:05.357Z,80.80
2019-03-22T09:55:33.183Z,80.00
2019-03-22T09:58:01.001Z,80.50
2019-03-22T10:00:30.458Z,79.90
2019-03-22T10:02:58.445Z,79.40
2019-03-22T10:05:26.224Z,80.00
2019-03-22T10:07:54.868Z,79.40
2019-03-22T10:10:22.701Z,79.20
2019-03-22T10:12:50.475Z,79.00
2019-03-22T10:15:18.378Z,79.30
2019-03-22T10:17:46.229Z,79.90
2019-03-22T10:20:14.034Z,80.10
2019-03-22T10:22:41.873Z,80.00
2019-03-22T10:25:09.690Z,79.20
2019-03-22T10:27:37.477Z,78.90
2019-03-22T10:30:06.351Z,75.10
2019-03-22T10:32:34.311Z,76.00
2019-03-22T10:35:02.195Z,77.90
2019-03-22T10:37:30.171Z,77.00
2019-03-22T10:39:57.994Z,77.60
2019-03-22T10:42:25.810Z,77.50
2019-03-22T10:44:53.684Z,76.60
2019-03-22T10:47:21.690Z,77.40
2019-03-22T10:49:49.516Z,77.10
2019-03-22T10:52:17.258Z,76.90
2019-03-22T10:54:45.000Z,77.00
2019-03-22T10:57:12.748Z,76.10
2019-03-22T10:59:40.497Z,75.20
2019-03-22T11:02:08.849Z,75.20
2019-03-22T11:04:36.477Z,75.60
2019-03-22T11:07:04.516Z,75.90
2019-03-22T11:09:33.252Z,75.70
2019-03-22T11:12:00.976Z,76.20
2019-03-22T11:14:28.770Z,75.70
2019-03-22T11:16:56.625Z,75.40
2019-03-22T11:19:24.368Z,75.00
2019-03-22T11:21:52.222Z,74.40
2019-03-22T11:24:20.024Z,72.80
2019-03-22T11:26:47.769Z,72.90
2019-03-22T11:29:17.428Z,75.20
2019-03-22T11:31:45.180Z,74.20
2019-03-22T11:34:12.924Z,73.60
2019-03-22T11:36:40.649Z,72.20
2019-03-22T11:39:15.425Z,71.80
2019-03-22T11:41:39.869Z,71.40
2019-03-22T11:44:07.638Z,71.70
2019-03-22T11:46:35.378Z,74.20
2019-03-22T11:49:03.134Z,73.30
2019-03-22T11:51:31.148Z,73.20
2019-03-22T11:53:58.884Z,73.80
2019-03-22T11:56:26.614Z,73.50
2019-03-22T11:58:54.355Z,74.40
2019-03-22T12:01:22.629Z,75.00
2019-03-22T12:03:50.650Z,73.50
2019-03-22T12:06:18.373Z,72.90
2019-03-22T12:08:46.139Z,73.80
2019-03-22T12:11:14.729Z,74.50
2019-03-22T12:13:42.489Z,73.60
2019-03-22T12:16:10.230Z,74.00
2019-03-22T12:18:37.973Z,73.70
2019-03-22T12:21:05.688Z,74.30
2019-03-22T12:23:33.440Z,74.00
2019-03-22T12:26:01.281Z,72.30
2019-03-22T12:28:29.083Z,72.20
2019-03-22T12:30:56.826Z,72.20
2019-03-22T12:33:24.560Z,71.10
2019-03-22T12:35:52.301Z,70.80
2019-03-22T12:38:20.125Z,69.50
2019-03-22T12:40:47.984Z,70.40
2019-03-22T12:43:15.713Z,70.80
2019-03-22T12:45:43.446Z,69.90
2019-03-22T12:48:11.201Z,70.10
2019-03-22T12:50:38.941Z,69.60
2019-03-22T12:53:06.670Z,69.50
2019-03-22T12:55:34.422Z,69.30
2019-03-22T12:58:02.268Z,69.40
2019-03-22T13:00:30.220Z,70.50
2019-03-22T13:02:57.956Z,69.30
2019-03-22T13:05:25.795Z,69.30
2019-03-22T13:07:53.521Z,70.20
2019-03-22T13:10:21.868Z,70.30
2019-03-22T13:12:49.657Z,71.70
2019-03-22T13:15:17.393Z,72.20
2019-03-22T13:17:45.126Z,71.10
2019-03-22T13:20:13.478Z,71.50
2019-03-22T13:22:41.229Z,71.50
2019-03-22T13:25:10.274Z,72.10
2019-03-22T13:27:38.004Z,73.70
2019-03-22T13:30:06.560Z,72.40
2019-03-22T13:32:34.309Z,72.30
2019-03-22T13:35:02.026Z,71.80
2019-03-22T13:37:29.810Z,72.10
2019-03-22T13:39:57.672Z,73.30
2019-03-22T13:42:25.633Z,71.90
2019-03-22T13:44:53.379Z,72.70
2019-03-22T13:47:21.109Z,71.30
2019-03-22T13:49:48.869Z,70.50
2019-03-22T13:52:16.709Z,71.20
2019-03-22T13:54:44.468Z,71.80
2019-03-22T13:57:12.197Z,72.70
2019-03-22T13:59:40.040Z,72.30
2019-03-22T14:02:07.801Z,72.40
2019-03-22T14:04:35.475Z,73.20
2019-03-22T14:07:03.320Z,71.90
2019-03-22T14:09:31.077Z,73.20
2019-03-22T14:11:59.753Z,73.20
2019-03-22T14:14:27.484Z,73.20
2019-03-22T14:16:55.200Z,73.40
2019-03-22T14:19:22.916Z,73.70
2019-03-22T14:21:50.628Z,73.00
2019-03-22T14:24:18.360Z,73.30
2019-03-22T14:26:46.103Z,73.70
2019-03-22T14:29:13.768Z,72.20
2019-03-22T14:31:41.509Z,73.50
2019-03-22T14:34:09.248Z,72.90
2019-03-22T14:36:37.014Z,73.50
2019-03-22T14:39:06.988Z,73.30
2019-03-22T14:41:34.747Z,73.00
2019-03-22T14:44:02.540Z,72.10
2019-03-22T14:46:30.288Z,72.50
2019-03-22T14:48:58.056Z,73.00
2019-03-22T14:51:25.841Z,72.20
2019-03-22T14:53:53.617Z,72.20
2019-03-22T14:56:21.346Z,72.30
2019-03-22T14:58:49.077Z,72.30
2019-03-22T15:01:16.824Z,72.50
2019-03-22T15:03:44.549Z,73.20
2019-03-22T15:06:12.293Z,73.00
2019-03-22T15:08:40.040Z,72.70
2019-03-22T15:11:07.862Z,72.90
2019-03-22T15:13:53.972Z,73.30
2019-03-22T15:16:39.820Z,72.50
2019-03-22T15:19:29.801Z,72.80
2019-03-22T15:22:19.996Z,73.00
2019-03-22T15:25:09.561Z,73.60
2019-03-22T15:28:02.504Z,74.30
2019-03-22T15:30:58.885Z,73.50
2019-03-22T15:33:49.636Z,74.30
2019-03-22T15:36:52.519Z,74.50
2019-03-22T15:39:58.413Z,74.20
2019-03-22T15:42:26.257Z,74.40
2019-03-22T15:44:54.013Z,74.20
2019-03-22T15:47:21.920Z,74.50
2019-03-22T15:49:49.696Z,74.90
2019-03-22T15:52:17.432Z,75.10
2019-03-22T15:54:45.194Z,75.80
2019-03-22T15:57:13.035Z,75.00
2019-03-22T15:59:40.856Z,75.50
2019-03-22T16:02:08.599Z,75.60
2019-03-22T16:04:36.323Z,75.20
2019-03-22T16:07:04.268Z,75.30
2019-03-22T16:09:32.024Z,76.10
2019-03-22T16:11:59.818Z,76.20
2019-03-22T16:14:27.460Z,76.10
2019-03-22T16:16:55.206Z,76.30
2019-03-22T16:19:23.032Z,76.80
2019-03-22T16:21:50.752Z,77.50
2019-03-22T16:24:18.500Z,77.40
2019-03-22T16:26:46.256Z,77.50
2019-03-22T16:29:14.150Z,77.40
2019-03-22T16:31:42.001Z,76.80
2019-03-22T16:34:09.741Z,77.30
2019-03-22T16:36:37.497Z,77.50
2019-03-22T16:39:07.604Z,78.00
2019-03-22T16:41:35.512Z,77.80
2019-03-22T16:44:03.528Z,77.70
2019-03-22T16:46:31.278Z,77.40
2019-03-22T16:48:59.025Z,77.50
2019-03-22T16:51:26.761Z,77.30
2019-03-22T16:53:54.488Z,77.80
2019-03-22T16:56:22.414Z,77.50
2019-03-22T16:58:50.168Z,77.80
2019-03-22T17:01:17.909Z,79.00
2019-03-22T17:03:45.764Z,80.20
2019-03-22T17:06:13.497Z,81.10
2019-03-22T17:08:41.244Z,81.50
2019-03-22T17:11:09.084Z,82.90
2019-03-22T17:13:36.901Z,83.20
2019-03-22T17:16:06.304Z,83.50
2019-03-22T17:18:34.073Z,84.50
2019-03-22T17:21:01.876Z,85.20
2019-03-22T17:23:29.744Z,85.80
2019-03-22T17:25:57.500Z,86.50
2019-03-22T17:28:25.401Z,87.30
2019-03-22T17:30:53.305Z,88.00
2019-03-22T17:33:21.045Z,88.20
2019-03-22T17:35:48.776Z,88.90
2019-03-22T17:38:16.565Z,89.40
2019-03-22T17:40:44.308Z,89.90
2019-03-22T17:43:12.068Z,90.10
2019-03-22T17:45:39.840Z,90.40
2019-03-22T17:48:07.577Z,90.50
2019-03-22T17:50:35.309Z,90.80
2019-03-22T17:53:03.052Z,90.90
2019-03-22T17:55:30.796Z,91.10
2019-03-22T17:57:58.560Z,91.20
2019-03-22T18:00:26.637Z,91.40
2019-03-22T18:02:54.389Z,91.80
2019-03-22T18:05:22.156Z,91.60
2019-03-22T18:07:49.892Z,91.60
2019-03-22T18:10:17.652Z,91.40
2019-03-22T18:12:45.408Z,91.40
2019-03-22T18:15:14.000Z,91.40
2019-03-22T18:17:42.774Z,90.50
2019-03-22T18:20:10.849Z,90.50
2019-03-22T18:22:38.586Z,90.50
2019-03-22T18:25:08.078Z,90.90
2019-03-22T18:27:36.801Z,91.20
2019-03-22T18:30:05.983Z,90.90
2019-03-22T18:32:33.730Z,90.70
2019-03-22T18:35:01.548Z,91.60
2019-03-22T18:37:29.398Z,91.90
2019-03-22T18:39:57.224Z,91.70
2019-03-22T18:42:24.965Z,91.40
2019-03-22T18:44:52.680Z,90.80
2019-03-22T18:47:20.517Z,90.80
2019-03-22T18:49:48.240Z,91.60
2019-03-22T18:52:15.962Z,91.90
2019-03-22T18:54:43.716Z,92.30
2019-03-22T18:57:11.544Z,92.90
2019-03-22T18:59:39.469Z,93.30
2019-03-22T19:02:07.232Z,92.90
2019-03-22T19:04:43.918Z,92.80
2019-03-22T19:07:04.701Z,92.70
2019-03-22T19:09:32.433Z,93.20
2019-03-22T19:12:00.189Z,92.40
2019-03-22T19:14:28.080Z,92.40
2019-03-22T19:16:55.847Z,92.60
2019-03-22T19:19:23.648Z,92.60
2019-03-22T19:21:51.429Z,93.40
2019-03-22T19:24:19.169Z,93.90
2019-03-22T19:26:46.897Z,93.50
2019-03-22T19:29:14.580Z,93.50
2019-03-22T19:31:42.322Z,93.40
2019-03-22T19:34:10.072Z,93.50
2019-03-22T19:36:37.816Z,94.30
2019-03-22T19:39:06.249Z,94.30
2019-03-22T19:41:34.215Z,94.00
2019-03-22T19:44:01.975Z,93.70
2019-03-22T19:46:29.808Z,94.30
2019-03-22T19:48:57.539Z,93.90
2019-03-22T19:51:25.308Z,94.20
2019-03-22T19:53:53.076Z,94.20
2019-03-22T19:56:20.712Z,94.30
2019-03-22T19:58:48.444Z,94.80
2019-03-22T20:01:16.196Z,94.60
2019-03-22T20:03:43.952Z,94.10
2019-03-22T20:06:11.761Z,94.60
2019-03-22T20:08:39.529Z,94.80
2019-03-22T20:11:07.288Z,95.10
2019-03-22T20:13:35.130Z,94.50
2019-03-22T20:16:02.932Z,94.40
2019-03-22T20:18:30.659Z,94.30
2019-03-22T20:20:58.417Z,94.70
2019-03-22T20:23:26.192Z,94.70
2019-03-22T20:25:53.948Z,94.80
2019-03-22T20:28:21.904Z,95.00
2019-03-22T20:30:49.760Z,95.20
2019-03-22T20:33:17.509Z,94.90
2019-03-22T20:35:45.272Z,95.30
2019-03-22T20:38:13.128Z,95.20
2019-03-22T20:40:40.862Z,95.00
2019-03-22T20:43:08.600Z,95.40
2019-03-22T20:45:36.340Z,95.60
2019-03-22T20:48:04.096Z,95.40
2019-03-22T20:50:36.009Z,95.40
2019-03-22T20:53:01.592Z,95.10
2019-03-22T20:55:29.320Z,95.50
2019-03-22T20:57:57.117Z,95.50
2019-03-22T21:00:27.262Z,95.70
2019-03-22T21:02:54.527Z,95.40
2019-03-22T21:05:26.969Z,96.40
2019-03-22T21:07:51.921Z,96.50
2019-03-22T21:10:19.644Z,96.00
2019-03-22T21:12:47.440Z,96.10
2019-03-22T21:15:23.930Z,96.60
2019-03-22T21:17:44.925Z,97.10
2019-03-22T21:20:12.894Z,97.50
2019-03-22T21:22:40.663Z,98.00
2019-03-22T21:25:08.809Z,98.00
2019-03-22T21:27:36.668Z,97.60
2019-03-22T21:30:05.066Z,97.20
2019-03-22T21:32:32.825Z,97.70
2019-03-22T21:35:00.757Z,97.40
2019-03-22T21:37:28.656Z,97.10
2019-03-22T21:39:56.957Z,96.90
2019-03-22T21:42:24.676Z,97.00
2019-03-22T21:44:52.428Z,97.50
2019-03-22T21:47:20.176Z,97.50
2019-03-22T21:49:47.904Z,97.30
2019-03-22T21:52:15.729Z,97.40
2019-03-22T21:54:43.464Z,97.80
2019-03-22T21:57:11.184Z,98.60
2019-03-22T21:59:38.818Z,98.80
2019-03-22T22:02:25.785Z,98.70
2019-03-22T22:04:53.528Z,98.50
2019-03-22T22:07:21.459Z,98.70
2019-03-22T22:09:49.204Z,98.30
2019-03-22T22:12:16.955Z,98.50
2019-03-22T22:14:44.680Z,98.90
2019-03-22T22:17:12.425Z,98.90
2019-03-22T22:19:40.164Z,98.60
2019-03-22T22:22:07.965Z,98.50
2019-03-22T22:24:35.716Z,98.50
2019-03-22T22:27:13.417Z,99.00
2019-03-22T22:29:33.212Z,99.10
2019-03-22T22:32:00.961Z,99.00
2019-03-22T22:34:28.820Z,99.10
2019-03-22T22:36:56.563Z,98.70
2019-03-22T22:39:24.352Z,98.60
2019-03-22T22:41:52.088Z,98.40
2019-03-22T22:44:19.818Z,98.80
2019-03-22T22:46:47.656Z,98.30
2019-03-22T22:49:15.408Z,98.80
2019-03-22T22:51:43.152Z,98.60
2019-03-22T22:54:10.920Z,98.40
2019-03-22T22:56:38.688Z,98.60
2019-03-22T22:59:06.469Z,98.90
2019-03-22T23:01:34.203Z,98.90
2019-03-22T23:04:01.942Z,98.50
2019-03-22T23:06:29.772Z,98.00
2019-03-22T23:08:57.505Z,98.60
2019-03-22T23:11:25.617Z,99.20
2019-03-22T23:13:53.239Z,99.50
2019-03-22T23:16:20.985Z,99.50
2019-03-22T23:18:48.776Z,99.90
2019-03-22T23:21:16.496Z,99.90
2019-03-22T23:23:44.248Z,99.90
2019-03-22T23:26:12.044Z,99.00
2019-03-22T23:28:39.797Z,99.10
2019-03-22T23:31:07.564Z,99.10
2019-03-22T23:33:35.318Z,99.00
2019-03-22T23:36:03.042Z,99.10
2019-03-22T23:38:30.785Z,99.60
2019-03-22T23:40:58.516Z,99.20
2019-03-22T23:43:26.316Z,99.70
2019-03-22T23:45:54.040Z,99.30
2019-03-22T23:48:21.808Z,99.80
2019-03-22T23:50:49.748Z,99.90
2019-03-22T23:53:17.488Z,99.90
2019-03-22T23:55:45.236Z,99.80
2019-03-22T23:58:12.957Z,99.50
